KINK

Winkler County Airport

Wink, Texas, USA
METAR KINK 160953Z AUTO 13007KT 10SM CLR M03/M04 A3004 RMK AO2 SLP169 T10281039
Observed Flight Rules
Dec-16 @ 09:53 UTC (an hour ago) Visual Flight Rules
Wind Visibility Clouds
130° at 7 knots 10 miles
  • Clear skies
Temperatures Readings
Current -3°C / 27°F
Dewpoint -4°C / 25°F
Humidity 93%
Altimeter 30.04" Hg
Pressure 1016.9 hPa
Elevation 855
METAR KINK 160953Z AUTO 13007KT 10SM CLR M03/M04 A3004 RMK AO2 SLP169 T10281039
Observed Flight Rules
Dec-16 @ 09:53 UTC
(an hour ago)
VFR
Wind Visibility
130° at 7 knots 10 miles
Clouds
  • Clear skies
Temperature Dewpoint
-3°C / 27°F -4°C / 25°F
Humidity Altimeter Pressure
93% 30.04" Hg 1016.9 hPa